Time;durP1;ratioP1;P1;durP2;ratioP2;P2;SDS_P1;SDS_P2;PMS_P1;PMS_P2;Temp;Humidity;BMP_temperature;BMP_pressure;BME280_temperature;BME280_humidity;BME280_pressure;Samples;Min_cycle;Max_cycle;Signal;HPM_P1;HPM_P2
2022/07/20 00:00:32;;;;;;;1999.90;999.90;;;18.80;52.70;;;;;;5080104;28;20040;-83
2022/07/20 00:03:05;;;;;;;1999.90;999.90;;;18.70;53.50;;;;;;5094492;28;20019;-83
2022/07/20 00:05:31;;;;;;;1999.90;999.90;;;18.70;53.50;;;;;;5080749;28;20024;-84
2022/07/20 00:07:57;;;;;;;1999.90;999.90;;;18.60;53.80;;;;;;5092612;28;20134;-83
2022/07/20 00:13:07;;;;;;;1999.90;999.90;;;18.60;53.30;;;;;;5091918;28;20035;-84
2022/07/20 00:15:33;;;;;;;1999.90;999.90;;;18.60;54.50;;;;;;5094899;28;20036;-84
2022/07/20 00:17:59;;;;;;;1999.90;999.90;;;18.30;54.80;;;;;;5073311;28;20589;-83
2022/07/20 00:20:25;;;;;;;1999.90;999.90;;;18.30;55.40;;;;;;5055596;28;20170;-83
2022/07/20 00:22:50;;;;;;;1999.90;999.90;;;18.10;56.90;;;;;;5074106;28;20837;-87
2022/07/20 00:25:16;;;;;;;1999.90;999.90;;;18.00;56.10;;;;;;5102824;28;20034;-84
2022/07/20 00:27:42;;;;;;;1999.90;999.90;;;18.00;56.50;;;;;;5084594;28;20032;-83
2022/07/20 00:30:09;;;;;;;1999.90;999.90;;;18.10;57.80;;;;;;5081808;28;20031;-83
2022/07/20 00:32:38;;;;;;;1999.90;999.90;;;18.10;55.00;;;;;;5103215;28;20046;-83
2022/07/20 00:35:09;;;;;;;1999.90;999.90;;;18.10;55.40;;;;;;5091378;28;20024;-85
2022/07/20 00:37:35;;;;;;;1999.90;999.90;;;18.10;55.50;;;;;;5094840;28;20607;-84
2022/07/20 00:40:02;;;;;;;1999.90;999.90;;;18.10;55.10;;;;;;5090329;28;20040;-83
2022/07/20 00:42:28;;;;;;;1999.90;999.90;;;18.10;55.50;;;;;;5095725;28;20491;-83
2022/07/20 00:44:54;;;;;;;1999.90;999.90;;;18.30;54.40;;;;;;5075532;28;20132;-83
2022/07/20 00:47:19;;;;;;;1999.90;999.90;;;18.20;55.50;;;;;;5092048;28;20091;-84
2022/07/20 00:49:45;;;;;;;1999.90;999.90;;;18.10;55.30;;;;;;5090204;28;20130;-83
2022/07/20 00:52:11;;;;;;;1999.90;999.90;;;18.00;57.00;;;;;;5074257;28;20046;-84
2022/07/20 00:54:39;;;;;;;1999.90;999.90;;;18.00;55.70;;;;;;5093666;28;20027;-83
2022/07/20 00:57:05;;;;;;;1999.90;999.90;;;17.90;55.80;;;;;;5087703;28;20036;-85
2022/07/20 00:59:31;;;;;;;1999.90;999.90;;;17.80;58.30;;;;;;5101136;28;20024;-84
2022/07/20 01:01:56;;;;;;;1999.90;999.90;;;17.70;60.10;;;;;;5097892;28;20089;-83
2022/07/20 01:04:22;;;;;;;1999.90;999.90;;;17.40;62.90;;;;;;5092412;28;20038;-83
2022/07/20 01:06:49;;;;;;;1999.90;999.90;;;17.20;62.40;;;;;;5081493;28;20560;-82
2022/07/20 01:09:17;;;;;;;1999.90;999.90;;;17.30;61.00;;;;;;5079356;28;20031;-88
2022/07/20 01:11:44;;;;;;;1999.90;999.90;;;17.30;61.30;;;;;;5094390;28;20028;-83
2022/07/20 01:14:10;;;;;;;1999.90;999.90;;;17.20;62.70;;;;;;5094805;28;20492;-83
2022/07/20 01:16:37;;;;;;;1999.90;999.90;;;17.20;62.60;;;;;;5092984;28;20115;-83
2022/07/20 01:19:04;;;;;;;1999.90;999.90;;;17.10;63.50;;;;;;5068480;28;20028;-85
2022/07/20 01:21:30;;;;;;;1999.90;999.90;;;17.00;64.30;;;;;;5067826;28;20032;-83
2022/07/20 01:23:55;;;;;;;1999.90;999.90;;;16.80;65.70;;;;;;5104246;28;20744;-83
2022/07/20 01:26:21;;;;;;;1999.90;999.90;;;16.60;65.80;;;;;;5106944;28;20031;-83
2022/07/20 01:28:47;;;;;;;1999.90;999.90;;;16.50;68.40;;;;;;5101562;28;20024;-83
2022/07/20 01:31:13;;;;;;;1999.90;999.90;;;16.30;69.80;;;;;;5087031;28;20035;-85
2022/07/20 01:33:38;;;;;;;1999.90;999.90;;;16.30;71.00;;;;;;5062399;28;20293;-83
2022/07/20 01:36:04;;;;;;;1999.90;999.90;;;16.30;70.90;;;;;;5102083;28;20090;-83
2022/07/20 01:38:30;;;;;;;1999.90;999.90;;;16.30;71.10;;;;;;5083179;28;20036;-83
2022/07/20 01:40:56;;;;;;;1999.90;999.90;;;16.20;70.90;;;;;;5081587;28;20106;-83
2022/07/20 01:43:21;;;;;;;1999.90;999.90;;;16.20;72.00;;;;;;5081760;28;20479;-85
2022/07/20 01:45:47;;;;;;;1999.90;999.90;;;16.10;72.30;;;;;;5098668;28;20035;-83
2022/07/20 01:48:13;;;;;;;1999.90;999.90;;;16.00;73.70;;;;;;5095229;28;20024;-82
2022/07/20 01:50:39;;;;;;;1999.90;999.90;;;15.90;73.40;;;;;;5094305;28;20039;-82
2022/07/20 01:53:06;;;;;;;1999.90;999.90;;;15.90;74.80;;;;;;5076136;28;20040;-82
2022/07/20 01:55:32;;;;;;;1999.90;999.90;;;15.80;75.90;;;;;;5105373;28;20444;-83
2022/07/20 01:57:58;;;;;;;1999.90;999.90;;;15.80;76.70;;;;;;5091534;28;20106;-83
2022/07/20 02:00:24;;;;;;;1999.90;999.90;;;15.60;76.90;;;;;;5071373;28;20103;-83
2022/07/20 02:02:50;;;;;;;1999.90;999.90;;;15.60;77.50;;;;;;5078523;28;20116;-83
2022/07/20 02:05:17;;;;;;;1999.90;999.90;;;15.60;77.70;;;;;;5103052;28;20032;-89
2022/07/20 02:07:43;;;;;;;1999.90;999.90;;;15.50;78.20;;;;;;5101014;28;20028;-84
2022/07/20 02:10:10;;;;;;;1999.90;999.90;;;15.60;77.70;;;;;;5097380;28;20016;-83
2022/07/20 02:12:36;;;;;;;1999.90;999.90;;;15.60;77.30;;;;;;5079957;28;20127;-83
2022/07/20 02:15:04;;;;;;;1999.90;999.90;;;15.60;76.60;;;;;;5077498;28;20581;-83
2022/07/20 02:17:30;;;;;;;1999.90;999.90;;;15.60;76.30;;;;;;5089382;28;20129;-84
2022/07/20 02:19:55;;;;;;;1999.90;999.90;;;15.60;76.70;;;;;;5095535;28;20031;-83
2022/07/20 02:22:21;;;;;;;1999.90;999.90;;;15.50;77.60;;;;;;5091783;28;20028;-83
2022/07/20 02:24:47;;;;;;;1999.90;999.90;;;15.50;76.10;;;;;;5065015;28;20600;-84
2022/07/20 02:27:12;;;;;;;1999.90;999.90;;;15.50;77.30;;;;;;5062284;28;20024;-83
2022/07/20 02:29:38;;;;;;;1999.90;999.90;;;15.40;78.00;;;;;;5102042;28;20103;-84
2022/07/20 02:32:04;;;;;;;1999.90;999.90;;;15.40;77.60;;;;;;5096699;28;20032;-83
2022/07/20 02:34:30;;;;;;;1999.90;999.90;;;15.30;78.70;;;;;;5065998;28;20028;-83
2022/07/20 02:36:55;;;;;;;1999.90;999.90;;;15.30;78.80;;;;;;5051211;28;20027;-83
2022/07/20 02:39:21;;;;;;;1999.90;999.90;;;15.20;78.50;;;;;;5081513;28;20055;-83
2022/07/20 02:41:46;;;;;;;1999.90;999.90;;;15.20;78.50;;;;;;5098488;28;20036;-84
2022/07/20 02:44:12;;;;;;;1999.90;999.90;;;15.20;78.80;;;;;;5096172;28;20053;-83
2022/07/20 02:46:39;;;;;;;1999.90;999.90;;;15.20;79.10;;;;;;5076352;28;20036;-83
2022/07/20 02:49:06;;;;;;;1999.90;999.90;;;15.20;79.30;;;;;;5057678;28;20032;-83
2022/07/20 02:51:32;;;;;;;1999.90;999.90;;;15.10;79.40;;;;;;5051771;28;20282;-83
2022/07/20 02:53:57;;;;;;;1999.90;999.90;;;15.20;79.10;;;;;;5082880;28;20126;-82
2022/07/20 02:56:23;;;;;;;1999.90;999.90;;;15.10;80.20;;;;;;5085921;28;20486;-83
2022/07/20 02:58:49;;;;;;;1999.90;999.90;;;15.10;79.00;;;;;;5061781;28;20032;-83
2022/07/20 03:01:15;;;;;;;1999.90;999.90;;;15.00;80.30;;;;;;5102630;28;20410;-82
2022/07/20 03:03:40;;;;;;;1999.90;999.90;;;15.00;80.80;;;;;;5081885;28;20495;-84
2022/07/20 03:06:06;;;;;;;1999.90;999.90;;;14.90;82.10;;;;;;5100688;28;20156;-83
2022/07/20 03:08:32;;;;;;;1999.90;999.90;;;14.90;82.40;;;;;;5059805;28;20050;-83
2022/07/20 03:10:57;;;;;;;1999.90;999.90;;;14.90;82.80;;;;;;5078872;28;20024;-83
2022/07/20 03:13:23;;;;;;;1999.90;999.90;;;14.80;82.60;;;;;;5092232;28;20032;-82
2022/07/20 03:15:49;;;;;;;1999.90;999.90;;;14.80;83.40;;;;;;5089873;28;20039;-88
2022/07/20 03:18:14;;;;;;;1999.90;999.90;;;14.70;83.80;;;;;;5072087;28;20036;-82
2022/07/20 03:20:40;;;;;;;1999.90;999.90;;;14.70;83.40;;;;;;5090724;28;20032;-82
2022/07/20 03:23:06;;;;;;;1999.90;999.90;;;14.60;84.20;;;;;;5055280;28;20089;-82
2022/07/20 03:25:32;;;;;;;1999.90;999.90;;;14.70;83.80;;;;;;5089397;28;20249;-83
2022/07/20 03:27:58;;;;;;;1999.90;999.90;;;14.60;82.80;;;;;;5100333;28;20023;-83
2022/07/20 03:30:24;;;;;;;1999.90;999.90;;;14.70;83.50;;;;;;5079483;28;20111;-84
2022/07/20 03:32:50;;;;;;;1999.90;999.90;;;14.70;83.60;;;;;;5102809;28;20020;-83
2022/07/20 03:35:16;;;;;;;1999.90;999.90;;;14.60;84.60;;;;;;5082742;28;20034;-84
2022/07/20 03:37:42;;;;;;;1999.90;999.90;;;14.60;82.70;;;;;;5095426;28;20079;-83
2022/07/20 03:40:09;;;;;;;1999.90;999.90;;;14.50;84.40;;;;;;5097803;28;20024;-82
2022/07/20 03:42:34;;;;;;;1999.90;999.90;;;14.50;84.30;;;;;;5086252;28;20031;-83
2022/07/20 03:45:00;;;;;;;1999.90;999.90;;;14.50;85.00;;;;;;5089746;28;20028;-83
2022/07/20 03:47:26;;;;;;;1999.90;999.90;;;14.50;83.90;;;;;;5073427;28;20036;-82
2022/07/20 03:49:52;;;;;;;1999.90;999.90;;;14.40;84.60;;;;;;5086885;28;20063;-82
2022/07/20 03:52:19;;;;;;;1999.90;999.90;;;14.40;85.30;;;;;;5073550;28;20083;-84
2022/07/20 03:54:44;;;;;;;1999.90;999.90;;;14.50;85.00;;;;;;5099500;28;20036;-83
2022/07/20 03:57:10;;;;;;;1999.90;999.90;;;14.50;85.00;;;;;;5106123;28;20026;-82
2022/07/20 03:59:36;;;;;;;1999.90;999.90;;;14.60;83.50;;;;;;5103942;28;20529;-82
2022/07/20 04:02:02;;;;;;;1999.90;999.90;;;14.60;84.10;;;;;;5079465;28;20521;-82
2022/07/20 04:04:28;;;;;;;1999.90;999.90;;;14.60;82.20;;;;;;5081042;28;20031;-84
2022/07/20 04:06:55;;;;;;;1999.90;999.90;;;14.70;84.70;;;;;;5080850;28;20028;-83
2022/07/20 04:12:10;;;;;;;1999.90;999.90;;;14.60;85.20;;;;;;5076271;28;20051;-82
2022/07/20 04:14:36;;;;;;;1999.90;999.90;;;14.60;85.70;;;;;;5075582;28;20090;-82
2022/07/20 04:17:02;;;;;;;1999.90;999.90;;;14.70;82.40;;;;;;5062024;28;20463;-82
2022/07/20 04:19:28;;;;;;;1999.90;999.90;;;14.90;82.00;;;;;;5071278;28;20077;-83
2022/07/20 04:21:55;;;;;;;1999.90;999.90;;;14.90;82.50;;;;;;5091146;28;20028;-83
2022/07/20 04:24:21;;;;;;;1999.90;999.90;;;15.10;82.60;;;;;;5084776;28;20035;-87
2022/07/20 04:26:47;;;;;;;1999.90;999.90;;;15.20;79.90;;;;;;5104507;28;20107;-82
2022/07/20 04:29:13;;;;;;;1999.90;999.90;;;15.10;82.00;;;;;;5082742;28;20123;-82
2022/07/20 04:31:38;;;;;;;1999.90;999.90;;;15.20;81.50;;;;;;5079557;28;20491;-83
2022/07/20 04:34:04;;;;;;;1999.90;999.90;;;15.20;81.80;;;;;;5092827;28;20058;-81
2022/07/20 04:36:29;;;;;;;1999.90;999.90;;;15.20;82.00;;;;;;5093770;28;20498;-83
2022/07/20 04:38:55;;;;;;;1999.90;999.90;;;15.30;81.90;;;;;;5054684;28;20020;-84
2022/07/20 04:41:21;;;;;;;1999.90;999.90;;;15.40;81.50;;;;;;5059390;28;20566;-81
2022/07/20 04:43:46;;;;;;;1999.90;999.90;;;15.60;79.50;;;;;;5085889;28;20391;-83
2022/07/20 04:46:12;;;;;;;1999.90;999.90;;;15.70;79.20;;;;;;5068628;28;20036;-82
2022/07/20 04:48:38;;;;;;;1999.90;999.90;;;15.70;80.00;;;;;;5067159;28;20458;-82
2022/07/20 04:51:03;;;;;;;1999.90;999.90;;;16.00;78.60;;;;;;5089326;28;20020;-81
2022/07/20 04:53:29;;;;;;;1999.90;999.90;;;16.20;76.70;;;;;;5103176;28;20405;-82
2022/07/20 04:55:55;;;;;;;1999.90;999.90;;;16.40;75.00;;;;;;5072937;28;20042;-82
2022/07/20 04:58:20;;;;;;;1999.90;999.90;;;16.50;76.10;;;;;;5086550;28;20571;-81
2022/07/20 05:00:46;;;;;;;1999.90;999.90;;;16.70;77.10;;;;;;5080093;28;20512;-82
2022/07/20 05:03:11;;;;;;;1999.90;999.90;;;16.80;77.50;;;;;;5066069;28;20024;-82
2022/07/20 05:05:37;;;;;;;1999.90;999.90;;;16.90;75.20;;;;;;5085197;28;20036;-83
2022/07/20 05:08:03;;;;;;;1999.90;999.90;;;17.00;72.90;;;;;;5097592;28;20094;-83
2022/07/20 05:10:29;;;;;;;1999.90;999.90;;;17.10;72.30;;;;;;5092731;28;20121;-82
2022/07/20 05:12:55;;;;;;;1999.90;999.90;;;17.30;71.20;;;;;;5097776;28;20032;-82
2022/07/20 05:15:23;;;;;;;1999.90;999.90;;;17.50;71.50;;;;;;5071224;28;20579;-83
2022/07/20 05:17:49;;;;;;;1999.90;999.90;;;17.70;72.50;;;;;;5076894;28;20031;-82
2022/07/20 05:20:15;;;;;;;1999.90;999.90;;;17.80;72.60;;;;;;5074646;28;20028;-81
2022/07/20 05:22:41;;;;;;;1999.90;999.90;;;17.80;71.90;;;;;;5070170;28;20029;-83
2022/07/20 05:25:07;;;;;;;1999.90;999.90;;;18.00;70.70;;;;;;5071251;28;20409;-81
2022/07/20 05:27:32;;;;;;;1999.90;999.90;;;18.10;71.20;;;;;;5086424;28;20537;-81
2022/07/20 05:29:58;;;;;;;1999.90;999.90;;;18.30;69.20;;;;;;5082734;28;20032;-80
2022/07/20 05:32:23;;;;;;;1999.90;999.90;;;18.40;70.00;;;;;;5083466;28;20047;-80
2022/07/20 05:34:49;;;;;;;1999.90;999.90;;;18.50;69.40;;;;;;5077261;28;20054;-81
2022/07/20 05:37:15;;;;;;;1999.90;999.90;;;18.60;69.30;;;;;;5078213;28;20078;-80
2022/07/20 05:39:40;;;;;;;1999.90;999.90;;;18.70;70.80;;;;;;5071039;28;20107;-78
2022/07/20 05:42:06;;;;;;;1999.90;999.90;;;18.80;65.50;;;;;;5058622;28;20480;-79
2022/07/20 05:44:32;;;;;;;1999.90;999.90;;;19.00;65.80;;;;;;5075928;28;20035;-78
2022/07/20 05:46:57;;;;;;;1999.90;999.90;;;19.00;66.20;;;;;;5079011;28;20383;-80
2022/07/20 05:49:23;;;;;;;1999.90;999.90;;;19.10;65.70;;;;;;5079062;28;20740;-79
2022/07/20 05:51:49;;;;;;;1999.90;999.90;;;19.20;66.00;;;;;;5073559;28;20453;-80
2022/07/20 05:54:14;;;;;;;1999.90;999.90;;;19.30;64.20;;;;;;5082391;28;20047;-80
2022/07/20 05:56:40;;;;;;;1999.90;999.90;;;19.40;65.40;;;;;;5084408;28;20541;-80
2022/07/20 05:59:05;;;;;;;1999.90;999.90;;;19.60;63.50;;;;;;5082653;28;20394;-79
2022/07/20 06:01:31;;;;;;;1999.90;999.90;;;19.70;62.90;;;;;;5076020;28;20138;-87
2022/07/20 06:03:57;;;;;;;1999.90;999.90;;;19.90;61.00;;;;;;5076120;28;20021;-89
2022/07/20 06:06:23;;;;;;;1999.90;999.90;;;20.10;60.90;;;;;;5059349;28;20507;-84
2022/07/20 06:08:48;;;;;;;1999.90;999.90;;;20.00;60.10;;;;;;5074402;28;20037;-84
2022/07/20 06:11:14;;;;;;;1999.90;999.90;;;20.10;60.30;;;;;;5056674;28;20055;-84
2022/07/20 06:13:40;;;;;;;1999.90;999.90;;;20.20;62.60;;;;;;5058436;28;20158;-85
2022/07/20 06:16:06;;;;;;;1999.90;999.90;;;20.40;60.30;;;;;;5090940;28;20037;-83
2022/07/20 06:18:31;;;;;;;1999.90;999.90;;;20.40;60.30;;;;;;5092898;28;20024;-82
2022/07/20 06:20:57;;;;;;;1999.90;999.90;;;20.50;63.00;;;;;;5082677;28;20027;-83
2022/07/20 06:23:22;;;;;;;1999.90;999.90;;;20.50;63.40;;;;;;5067228;28;20539;-83
2022/07/20 06:25:48;;;;;;;1999.90;999.90;;;20.70;60.90;;;;;;5044886;28;20540;-83
2022/07/20 06:28:14;;;;;;;1999.90;999.90;;;20.70;63.10;;;;;;5082874;28;20027;-82
2022/07/20 06:30:39;;;;;;;1999.90;999.90;;;20.90;63.20;;;;;;5077718;28;20032;-83
2022/07/20 06:33:05;;;;;;;1999.90;999.90;;;20.80;62.10;;;;;;5075810;28;20038;-83
2022/07/20 06:35:31;;;;;;;1999.90;999.90;;;21.00;60.90;;;;;;5077404;28;20128;-83
2022/07/20 06:37:57;;;;;;;1999.90;999.90;;;21.00;58.30;;;;;;5083388;28;20025;-83
2022/07/20 06:40:23;;;;;;;1999.90;999.90;;;21.20;58.90;;;;;;5073806;28;20039;-83
2022/07/20 06:42:48;;;;;;;1999.90;999.90;;;21.40;61.80;;;;;;5095484;28;20473;-83
2022/07/20 06:45:14;;;;;;;1999.90;999.90;;;21.50;55.80;;;;;;5056398;28;20028;-83
2022/07/20 06:47:40;;;;;;;1999.90;999.90;;;21.50;53.40;;;;;;5092198;28;20061;-82
2022/07/20 06:50:06;;;;;;;1999.90;999.90;;;21.70;54.30;;;;;;5067003;28;20081;-83
2022/07/20 06:52:33;;;;;;;1999.90;999.90;;;21.80;57.50;;;;;;5090908;28;20125;-83
2022/07/20 06:54:59;;;;;;;1999.90;999.90;;;21.90;56.70;;;;;;5062298;28;20027;-84
2022/07/20 06:57:24;;;;;;;1999.90;999.90;;;21.90;57.80;;;;;;5101719;28;20568;-84
2022/07/20 06:59:50;;;;;;;1999.90;999.90;;;22.20;56.60;;;;;;5102701;28;20050;-83
2022/07/20 07:02:16;;;;;;;1999.90;999.90;;;22.20;53.40;;;;;;5080646;28;20509;-83
2022/07/20 07:04:42;;;;;;;1999.90;999.90;;;22.30;51.20;;;;;;5095132;28;20111;-83
2022/07/20 07:07:08;;;;;;;1999.90;999.90;;;22.50;49.10;;;;;;5090465;28;20106;-84
2022/07/20 07:09:33;;;;;;;1999.90;999.90;;;22.60;50.80;;;;;;5097248;28;20137;-83
2022/07/20 07:11:59;;;;;;;1999.90;999.90;;;22.80;50.20;;;;;;5091900;28;20028;-83
2022/07/20 07:14:25;;;;;;;1999.90;999.90;;;22.80;53.50;;;;;;5056980;28;20052;-83
2022/07/20 07:16:52;;;;;;;1999.90;999.90;;;22.90;55.70;;;;;;5074872;28;20074;-83
2022/07/20 07:19:18;;;;;;;1999.90;999.90;;;23.20;53.70;;;;;;5088511;28;20111;-84
2022/07/20 07:21:43;;;;;;;1999.90;999.90;;;23.40;50.40;;;;;;5070986;28;20118;-83
2022/07/20 07:24:09;;;;;;;1999.90;999.90;;;23.60;48.50;;;;;;5087412;28;20031;-84
2022/07/20 07:26:35;;;;;;;1999.90;999.90;;;23.70;50.80;;;;;;5098766;28;20038;-84
2022/07/20 07:29:00;;;;;;;1999.90;999.90;;;23.80;47.40;;;;;;5075258;28;20020;-83
2022/07/20 07:31:26;;;;;;;1999.90;999.90;;;23.90;45.20;;;;;;5083317;28;20463;-84
2022/07/20 07:33:52;;;;;;;1999.90;999.90;;;24.10;45.20;;;;;;5080460;28;20050;-83
2022/07/20 07:36:17;;;;;;;1999.90;999.90;;;24.20;46.50;;;;;;5097714;28;20107;-83
2022/07/20 07:38:43;;;;;;;1999.90;999.90;;;24.20;46.40;;;;;;5093338;28;20028;-83
2022/07/20 07:41:09;;;;;;;1999.90;999.90;;;24.40;46.00;;;;;;5074407;28;20031;-83
2022/07/20 07:43:35;;;;;;;1999.90;999.90;;;24.80;45.80;;;;;;5075299;28;20028;-84
2022/07/20 07:46:01;;;;;;;1999.90;999.90;;;24.90;45.20;;;;;;5089053;28;20034;-83
2022/07/20 07:48:26;;;;;;;1999.90;999.90;;;24.90;44.50;;;;;;5084881;28;20479;-83
2022/07/20 07:50:52;;;;;;;1999.90;999.90;;;25.10;45.10;;;;;;5086180;28;20127;-83
2022/07/20 07:53:18;;;;;;;1999.90;999.90;;;25.30;43.70;;;;;;5082412;28;20042;-84
2022/07/20 07:55:43;;;;;;;1999.90;999.90;;;25.30;44.20;;;;;;5076539;28;20130;-84
2022/07/20 07:58:11;;;;;;;1999.90;999.90;;;25.50;43.70;;;;;;5102583;28;20028;-83
2022/07/20 08:00:37;;;;;;;1999.90;999.90;;;25.60;44.80;;;;;;5098791;28;20039;-83
2022/07/20 08:03:04;;;;;;;1999.90;999.90;;;25.90;48.70;;;;;;5079799;28;20482;-84
2022/07/20 08:05:30;;;;;;;1999.90;999.90;;;26.00;43.30;;;;;;5072959;28;20115;-83
2022/07/20 08:07:56;;;;;;;1999.90;999.90;;;26.20;48.40;;;;;;5093621;28;20425;-83
2022/07/20 08:10:22;;;;;;;1999.90;999.90;;;26.30;46.10;;;;;;5070628;28;20476;-83
2022/07/20 08:12:48;;;;;;;1999.90;999.90;;;26.60;43.50;;;;;;5059495;28;20036;-83
2022/07/20 08:15:13;;;;;;;1999.90;999.90;;;26.70;44.50;;;;;;5088580;28;20402;-83
2022/07/20 08:17:43;;;;;;;1999.90;999.90;;;26.70;44.30;;;;;;5073459;28;20101;-83
2022/07/20 08:20:10;;;;;;;1999.90;878.90;;;26.80;40.90;;;;;;5072631;28;20491;-82
2022/07/20 08:22:35;;;;;;;1999.90;999.90;;;27.00;44.30;;;;;;5100589;28;20039;-83
2022/07/20 08:25:01;;;;;;;1999.90;999.90;;;27.10;40.60;;;;;;5052789;28;20127;-84
2022/07/20 08:27:27;;;;;;;1999.90;999.90;;;27.30;42.00;;;;;;5101822;28;20036;-83
2022/07/20 08:29:58;;;;;;;1999.90;999.90;;;27.60;39.70;;;;;;5075040;28;20040;-84
2022/07/20 08:32:26;;;;;;;1999.90;999.90;;;27.80;39.40;;;;;;5084023;28;20426;-85
2022/07/20 08:34:52;;;;;;;1999.90;999.90;;;27.90;39.00;;;;;;5085792;28;20055;-84
2022/07/20 08:37:18;;;;;;;1999.90;999.90;;;27.90;39.70;;;;;;5100832;28;20483;-84
2022/07/20 08:39:44;;;;;;;1999.90;999.90;;;27.90;38.90;;;;;;5082260;28;20059;-84
2022/07/20 08:42:11;;;;;;;1999.90;999.90;;;28.00;37.80;;;;;;5100960;28;20047;-84
2022/07/20 08:44:39;;;;;;;1999.90;999.90;;;28.00;38.00;;;;;;5095944;28;20054;-84
2022/07/20 08:47:05;;;;;;;1999.90;999.90;;;28.10;38.30;;;;;;5095010;28;20115;-84
2022/07/20 08:49:31;;;;;;;1999.90;999.90;;;28.20;38.30;;;;;;5074243;28;20059;-84
2022/07/20 08:51:58;;;;;;;1999.90;999.90;;;28.30;36.60;;;;;;5106585;28;20514;-84
2022/07/20 08:54:25;;;;;;;1999.90;999.90;;;28.50;38.70;;;;;;5105097;28;20038;-84
2022/07/20 08:56:51;;;;;;;1999.90;999.90;;;28.70;39.20;;;;;;5104148;28;20070;-84
2022/07/20 08:59:16;;;;;;;1999.90;999.90;;;29.10;37.80;;;;;;5086859;28;20077;-83
2022/07/20 09:02:04;;;;;;;1999.90;999.90;;;29.40;37.80;;;;;;5077347;28;20036;-85
2022/07/20 09:04:29;;;;;;;1999.90;999.90;;;29.30;35.70;;;;;;5085453;28;20032;-84
2022/07/20 09:06:56;;;;;;;1999.90;999.90;;;29.50;37.40;;;;;;5069719;28;20058;-84
2022/07/20 09:09:22;;;;;;;1999.90;999.90;;;29.40;37.20;;;;;;5078705;28;20056;-84
2022/07/20 09:11:49;;;;;;;1999.90;999.90;;;29.60;37.70;;;;;;5070431;28;20530;-84
2022/07/20 09:14:35;;;;;;;1999.90;999.90;;;29.70;39.30;;;;;;5093502;28;20059;-84
2022/07/20 09:17:14;;;;;;;1999.90;999.90;;;29.80;39.10;;;;;;5096293;28;20434;-84
2022/07/20 09:19:57;;;;;;;1999.90;999.90;;;30.10;39.90;;;;;;5079436;28;20444;-84
2022/07/20 09:22:49;;;;;;;1999.90;999.90;;;30.20;36.90;;;;;;5111093;28;20027;-84
2022/07/20 09:25:15;;;;;;;1999.90;999.90;;;30.10;36.60;;;;;;5088320;28;20130;-84
2022/07/20 09:27:42;;;;;;;1999.90;999.90;;;30.40;36.80;;;;;;5089878;28;20028;-84
2022/07/20 09:30:11;;;;;;;1999.90;999.90;;;30.60;34.20;;;;;;5086652;28;20059;-84
2022/07/20 09:33:03;;;;;;;1999.90;999.90;;;31.00;37.60;;;;;;5084493;28;20380;-84
2022/07/20 09:35:34;;;;;;;1999.90;999.90;;;31.10;32.20;;;;;;5082614;28;20400;-84
2022/07/20 09:38:02;;;;;;;1999.90;724.13;;;31.10;32.50;;;;;;5061349;28;20177;-84
2022/07/20 09:40:38;;;;;;;1999.90;999.90;;;30.80;31.60;;;;;;5096878;28;20020;-85
2022/07/20 09:43:04;;;;;;;1999.90;999.90;;;31.00;34.10;;;;;;5094071;28;20016;-84
2022/07/20 09:45:30;;;;;;;1999.90;999.90;;;31.20;30.30;;;;;;5069972;28;20579;-84
2022/07/20 09:48:21;;;;;;;1999.90;999.90;;;31.60;32.10;;;;;;5072339;28;20036;-84
2022/07/20 09:50:47;;;;;;;1999.90;999.90;;;32.10;34.90;;;;;;5099167;28;20061;-85
2022/07/20 09:53:14;;;;;;;1999.90;999.90;;;32.10;27.90;;;;;;5103672;28;20031;-84
2022/07/20 09:55:41;;;;;;;1999.90;999.90;;;32.30;28.40;;;;;;5083858;28;20036;-85
2022/07/20 09:58:07;;;;;;;1999.90;999.90;;;32.50;27.60;;;;;;5062837;28;20372;-84
2022/07/20 10:00:35;;;;;;;1999.90;999.90;;;32.50;27.20;;;;;;5097918;28;20028;-77
2022/07/20 10:03:03;;;;;;;1999.90;999.90;;;32.30;26.00;;;;;;5090277;28;20021;-79
2022/07/20 10:05:32;;;;;;;1999.90;999.90;;;32.00;25.00;;;;;;5091419;28;20024;-78
2022/07/20 10:08:02;;;;;;;1999.90;999.90;;;32.40;26.00;;;;;;5092331;28;20035;-78
2022/07/20 10:10:28;;;;;;;1999.90;999.90;;;32.60;28.70;;;;;;5095713;28;20035;-77
2022/07/20 10:12:55;;;;;;;1999.90;999.90;;;32.50;26.70;;;;;;5069191;28;20372;-78
2022/07/20 10:15:28;;;;;;;1999.90;999.90;;;32.90;27.50;;;;;;5092322;28;20632;-78
2022/07/20 10:17:55;;;;;;;1999.90;999.90;;;33.20;26.00;;;;;;5091540;28;20032;-79
2022/07/20 10:20:37;;;;;;;1999.90;999.90;;;33.20;25.30;;;;;;5095116;28;20055;-78
2022/07/20 10:23:15;;;;;;;1999.90;999.90;;;33.30;24.00;;;;;;5098423;28;20494;-80
2022/07/20 10:25:46;;;;;;;1999.90;999.90;;;33.70;24.80;;;;;;5095266;28;20039;-78
2022/07/20 10:28:25;;;;;;;1999.90;999.90;;;34.00;27.10;;;;;;5070231;28;20529;-79
2022/07/20 10:30:54;;;;;;;1999.90;999.90;;;33.70;24.30;;;;;;5093194;28;20047;-78
2022/07/20 10:33:21;;;;;;;1999.90;999.90;;;33.80;24.60;;;;;;5079598;28;20027;-78
2022/07/20 10:35:49;;;;;;;1999.90;999.90;;;33.90;24.20;;;;;;5077456;28;20123;-78
2022/07/20 10:38:18;;;;;;;1999.90;999.90;;;33.60;24.40;;;;;;5062843;28;20578;-78
2022/07/20 10:44:22;;;;;;;1999.90;999.90;;;34.40;23.60;;;;;;5086337;28;20039;-78
2022/07/20 10:46:49;;;;;;;1999.90;999.90;;;34.30;24.40;;;;;;5068603;28;20024;-80
2022/07/20 10:49:15;;;;;;;1999.90;999.90;;;34.70;24.30;;;;;;5071546;28;20028;-78
2022/07/20 10:51:41;;;;;;;1999.90;999.90;;;35.00;24.20;;;;;;5099058;28;20028;-79
2022/07/20 10:54:33;;;;;;;1999.90;999.90;;;34.70;24.80;;;;;;5084992;28;21998;-80
2022/07/20 10:57:00;;;;;;;1999.90;999.90;;;34.80;23.60;;;;;;5102183;28;20039;-80
2022/07/20 10:59:25;;;;;;;1999.90;999.90;;;34.70;22.60;;;;;;5082328;28;20020;-77
2022/07/20 11:01:52;;;;;;;1999.90;999.90;;;35.00;23.90;;;;;;5068666;28;20082;-77
2022/07/20 11:04:21;;;;;;;1999.90;999.90;;;35.10;21.40;;;;;;5081528;28;20024;-78
2022/07/20 11:06:47;;;;;;;1999.90;999.90;;;35.50;20.80;;;;;;5092897;28;20045;-75
2022/07/20 11:09:13;;;;;;;1999.90;999.90;;;36.00;22.50;;;;;;5099902;28;20448;-75
2022/07/20 11:11:40;;;;;;;1999.90;999.90;;;35.40;22.90;;;;;;5092553;28;20468;-78
2022/07/20 11:14:09;;;;;;;1999.90;999.90;;;36.90;19.10;;;;;;5095599;28;20578;-75
2022/07/20 11:16:36;;;;;;;1999.90;999.90;;;37.40;17.80;;;;;;5050001;28;20028;-76
2022/07/20 11:19:03;;;;;;;1999.90;999.90;;;37.50;19.30;;;;;;5067836;28;20024;-76
2022/07/20 11:21:38;;;;;;;1999.90;999.90;;;37.20;18.40;;;;;;5089208;28;20023;-76
2022/07/20 11:24:26;;;;;;;1999.90;999.90;;;37.40;17.90;;;;;;5077865;28;20106;-76
2022/07/20 11:26:53;;;;;;;1999.90;999.90;;;37.40;18.00;;;;;;5098903;28;20028;-75
2022/07/20 11:29:18;;;;;;;1999.90;999.90;;;37.40;18.10;;;;;;5097109;28;20028;-76
2022/07/20 11:31:45;;;;;;;1999.90;999.90;;;37.50;17.20;;;;;;5097707;28;20043;-76
2022/07/20 11:34:13;;;;;;;1999.90;999.90;;;37.70;19.70;;;;;;5093759;28;20032;-77
2022/07/20 11:36:39;;;;;;;1999.90;999.90;;;38.20;15.70;;;;;;5070368;28;20024;-77
2022/07/20 11:39:08;;;;;;;1999.90;999.90;;;37.60;19.50;;;;;;5094481;28;20048;-75
2022/07/20 11:41:36;;;;;;;1999.90;999.90;;;38.50;17.10;;;;;;5069535;28;20027;-76
2022/07/20 11:44:04;;;;;;;1999.90;999.90;;;38.10;17.80;;;;;;5065574;28;20594;-75
2022/07/20 11:46:36;;;;;;;1999.90;999.90;;;38.40;19.70;;;;;;5093302;28;20058;-76
2022/07/20 11:49:05;;;;;;;1999.90;999.90;;;38.80;16.50;;;;;;5088750;28;20495;-75
2022/07/20 11:51:35;;;;;;;1999.90;999.90;;;38.90;15.70;;;;;;5101492;28;20059;-76
2022/07/20 11:54:02;;;;;;;1999.90;999.90;;;39.20;16.10;;;;;;5078941;28;20023;-75
2022/07/20 11:56:29;;;;;;;1999.90;999.90;;;39.70;15.90;;;;;;5083669;28;20733;-76
2022/07/20 11:58:57;;;;;;;1999.90;999.90;;;39.40;17.40;;;;;;5078523;28;20028;-76
2022/07/20 12:01:30;;;;;;;1999.90;999.90;;;38.80;17.70;;;;;;5093056;28;20521;-75
2022/07/20 12:04:12;;;;;;;1999.90;999.90;;;40.20;17.90;;;;;;5072813;28;20024;-77
2022/07/20 12:06:40;;;;;;;1999.90;999.90;;;39.30;17.40;;;;;;5093222;28;20055;-83